Time;durP1;ratioP1;P1;durP2;ratioP2;P2;SDS_P1;SDS_P2;PMS_P1;PMS_P2;Temp;Humidity;BMP_temperature;BMP_pressure;BME280_temperature;BME280_humidity;BME280_pressure;Samples;Min_cycle;Max_cycle;Signal;HPM_P1;HPM_P2
2022/07/30 00:01:55;;;;;;;7.30;2.22;;;;;;;;;;5087466;28;20113;-81
2022/07/30 00:04:23;;;;;;;2.90;1.90;;;;;;;;;;5092038;28;20035;-81
2022/07/30 00:06:49;;;;;;;6.47;2.65;;;;;;;;;;5073408;28;20396;-81
2022/07/30 00:09:15;;;;;;;6.60;2.40;;;;;;;;;;5070922;28;20172;-81
2022/07/30 00:11:41;;;;;;;3.47;2.08;;;;;;;;;;5090044;28;20084;-81
2022/07/30 00:14:07;;;;;;;3.75;2.22;;;;;;;;;;5088902;28;20025;-81
2022/07/30 00:16:34;;;;;;;3.50;2.42;;;;;;;;;;5091719;28;20035;-81
2022/07/30 00:19:01;;;;;;;4.40;2.20;;;;;;;;;;5086009;28;20025;-82
2022/07/30 00:21:27;;;;;;;6.20;2.33;;;;;;;;;;5085092;28;20086;-78
2022/07/30 00:23:53;;;;;;;4.13;2.15;;;;;;;;;;5091119;28;20387;-78
2022/07/30 00:26:19;;;;;;;6.22;2.60;;;;;;;;;;5091928;28;20042;-78
2022/07/30 00:28:45;;;;;;;7.72;2.33;;;;;;;;;;5090548;28;20028;-81
2022/07/30 00:31:11;;;;;;;3.03;2.10;;;;;;;;;;5088411;28;20043;-81
2022/07/30 00:33:37;;;;;;;4.13;2.67;;;;;;;;;;5072301;28;20024;-81
2022/07/30 00:36:04;;;;;;;2.70;2.20;;;;;;;;;;5089043;28;20115;-81
2022/07/30 00:38:30;;;;;;;3.10;2.10;;;;;;;;;;5072789;28;20110;-83
2022/07/30 00:40:57;;;;;;;5.00;2.15;;;;;;;;;;5071128;28;20031;-82
2022/07/30 00:43:23;;;;;;;3.58;2.35;;;;;;;;;;5070800;28;20046;-83
2022/07/30 00:45:49;;;;;;;4.97;2.58;;;;;;;;;;5069926;28;20036;-82
2022/07/30 00:48:15;;;;;;;5.47;2.60;;;;;;;;;;5073047;28;20491;-82
2022/07/30 00:50:42;;;;;;;3.67;2.60;;;;;;;;;;5066286;28;20027;-82
2022/07/30 00:53:08;;;;;;;5.15;2.40;;;;;;;;;;5069630;28;20024;-82
2022/07/30 00:55:35;;;;;;;2.72;1.98;;;;;;;;;;5063169;28;20029;-82
2022/07/30 00:58:01;;;;;;;3.53;2.50;;;;;;;;;;5072425;28;20093;-82
2022/07/30 01:00:27;;;;;;;5.00;2.33;;;;;;;;;;5091028;28;20017;-82
2022/07/30 01:02:53;;;;;;;4.60;2.80;;;;;;;;;;5080405;28;20081;-82
2022/07/30 01:05:20;;;;;;;3.53;2.47;;;;;;;;;;5087707;28;20031;-82
2022/07/30 01:07:46;;;;;;;7.05;2.38;;;;;;;;;;5071326;28;20530;-82
2022/07/30 01:10:13;;;;;;;5.70;2.53;;;;;;;;;;5085983;28;20028;-82
2022/07/30 01:12:40;;;;;;;4.57;2.15;;;;;;;;;;5067525;28;20113;-77
2022/07/30 01:15:07;;;;;;;4.72;2.03;;;;;;;;;;5088877;28;20048;-76
2022/07/30 01:17:34;;;;;;;4.28;1.90;;;;;;;;;;5090309;28;20027;-76
2022/07/30 01:20:12;;;;;;;5.70;2.25;;;;;;;;;;5089384;28;20039;-76
2022/07/30 01:22:43;;;;;;;4.72;2.20;;;;;;;;;;5086952;28;20383;-76
2022/07/30 01:25:30;;;;;;;3.78;2.08;;;;;;;;;;5089227;28;20031;-76
2022/07/30 01:28:04;;;;;;;3.60;2.03;;;;;;;;;;5008809;28;20091;-76
2022/07/30 01:30:32;;;;;;;2.80;1.98;;;;;;;;;;5028567;28;20165;-84
2022/07/30 01:32:59;;;;;;;5.30;2.13;;;;;;;;;;5026295;28;20040;-78
2022/07/30 01:35:27;;;;;;;2.70;1.60;;;;;;;;;;5025383;28;20077;-78
2022/07/30 01:37:54;;;;;;;3.10;2.08;;;;;;;;;;5011448;28;20053;-78
2022/07/30 01:40:20;;;;;;;2.35;1.75;;;;;;;;;;5026114;28;20164;-82
2022/07/30 01:42:48;;;;;;;3.88;1.98;;;;;;;;;;5027905;28;20030;-81
2022/07/30 01:45:15;;;;;;;3.47;2.00;;;;;;;;;;5012433;28;20133;-81
2022/07/30 01:47:43;;;;;;;3.15;1.67;;;;;;;;;;5008960;28;20029;-81
2022/07/30 01:50:14;;;;;;;3.90;1.90;;;;;;;;;;5011939;28;20060;-82
2022/07/30 01:52:43;;;;;;;2.08;1.80;;;;;;;;;;5009813;28;20125;-82
2022/07/30 01:55:11;;;;;;;4.68;1.88;;;;;;;;;;5021593;28;20032;-78
2022/07/30 01:57:38;;;;;;;5.60;1.88;;;;;;;;;;5026897;28;20584;-77
2022/07/30 02:00:05;;;;;;;3.13;2.13;;;;;;;;;;5027129;28;20160;-77
2022/07/30 02:02:42;;;;;;;3.40;1.92;;;;;;;;;;5025308;28;20517;-78
2022/07/30 02:05:09;;;;;;;3.28;2.13;;;;;;;;;;5062473;28;20036;-81
2022/07/30 02:07:35;;;;;;;2.83;2.05;;;;;;;;;;5066815;28;20028;-81
2022/07/30 02:10:04;;;;;;;3.20;2.20;;;;;;;;;;5064052;28;20048;-79
2022/07/30 02:12:40;;;;;;;1.90;1.70;;;;;;;;;;5081327;28;20028;-79
2022/07/30 02:15:12;;;;;;;4.18;1.85;;;;;;;;;;5068647;28;20040;-80
2022/07/30 02:17:40;;;;;;;4.88;1.90;;;;;;;;;;5072858;28;20502;-80
2022/07/30 02:20:08;;;;;;;7.18;1.90;;;;;;;;;;5075230;28;20396;-80
2022/07/30 02:22:37;;;;;;;5.45;2.30;;;;;;;;;;5065584;28;20405;-80
2022/07/30 02:25:03;;;;;;;2.67;1.75;;;;;;;;;;5089832;28;20040;-81
2022/07/30 02:27:33;;;;;;;3.78;2.05;;;;;;;;;;5088399;28;20033;-78
2022/07/30 02:30:01;;;;;;;4.10;2.05;;;;;;;;;;5071192;28;20032;-79
2022/07/30 02:32:30;;;;;;;3.38;1.80;;;;;;;;;;5072133;28;20092;-81
2022/07/30 02:34:59;;;;;;;2.67;2.38;;;;;;;;;;5068711;28;20039;-81
2022/07/30 02:37:27;;;;;;;3.85;1.88;;;;;;;;;;5071010;28;20031;-81
2022/07/30 02:39:55;;;;;;;4.03;1.73;;;;;;;;;;5090572;28;20484;-74
2022/07/30 02:42:25;;;;;;;2.70;1.63;;;;;;;;;;5092096;28;20028;-74
2022/07/30 02:44:53;;;;;;;2.85;2.47;;;;;;;;;;5068945;28;20028;-75
2022/07/30 02:47:22;;;;;;;2.83;1.70;;;;;;;;;;5072854;28;20052;-77
2022/07/30 02:50:03;;;;;;;5.18;2.15;;;;;;;;;;5070745;28;20085;-77
2022/07/30 02:52:29;;;;;;;3.13;2.20;;;;;;;;;;5069982;28;20060;-77
2022/07/30 02:54:56;;;;;;;4.60;2.17;;;;;;;;;;5067781;28;20032;-82
2022/07/30 02:57:22;;;;;;;5.18;2.53;;;;;;;;;;5072243;28;20026;-82
2022/07/30 02:59:50;;;;;;;3.47;2.45;;;;;;;;;;5075527;28;20036;-83
2022/07/30 03:02:16;;;;;;;4.88;2.85;;;;;;;;;;5070272;28;20125;-82
2022/07/30 03:04:43;;;;;;;3.17;2.88;;;;;;;;;;5075668;28;20035;-82
2022/07/30 03:07:09;;;;;;;4.65;2.58;;;;;;;;;;5074424;28;20032;-83
2022/07/30 03:09:38;;;;;;;5.97;2.72;;;;;;;;;;5069397;28;20430;-83
2022/07/30 03:12:05;;;;;;;3.35;2.65;;;;;;;;;;5072736;28;20036;-84
2022/07/30 03:14:31;;;;;;;3.97;2.90;;;;;;;;;;5092307;28;20044;-83
2022/07/30 03:16:58;;;;;;;8.00;2.35;;;;;;;;;;5071992;28;20073;-83
2022/07/30 03:19:29;;;;;;;5.03;2.60;;;;;;;;;;5075840;28;20484;-83
2022/07/30 03:21:55;;;;;;;5.70;2.25;;;;;;;;;;5092698;28;20016;-82
2022/07/30 03:24:23;;;;;;;3.30;2.15;;;;;;;;;;5072662;28;20024;-83
2022/07/30 03:26:50;;;;;;;4.13;2.10;;;;;;;;;;5070663;28;21308;-83
2022/07/30 03:29:17;;;;;;;3.47;2.70;;;;;;;;;;5093496;28;20016;-83
2022/07/30 03:31:43;;;;;;;3.63;2.33;;;;;;;;;;5090476;28;20490;-83
2022/07/30 03:34:11;;;;;;;3.10;2.15;;;;;;;;;;5071994;28;20080;-83
2022/07/30 03:36:39;;;;;;;4.18;2.70;;;;;;;;;;5073114;28;20111;-83
2022/07/30 03:39:06;;;;;;;5.43;2.45;;;;;;;;;;5055180;28;20035;-83
2022/07/30 03:41:33;;;;;;;1.88;1.55;;;;;;;;;;5071942;28;20028;-83
2022/07/30 03:44:00;;;;;;;3.47;2.38;;;;;;;;;;5073980;28;20027;-78
2022/07/30 03:46:26;;;;;;;7.00;2.45;;;;;;;;;;5092240;28;20115;-80
2022/07/30 03:48:54;;;;;;;4.50;2.25;;;;;;;;;;5066755;28;20029;-84
2022/07/30 03:51:20;;;;;;;4.53;2.50;;;;;;;;;;5071267;28;20157;-83
2022/07/30 03:53:47;;;;;;;6.25;2.20;;;;;;;;;;5068685;28;20031;-83
2022/07/30 03:56:45;;;;;;;8.85;2.20;;;;;;;;;;5083288;28;20040;-84
2022/07/30 03:59:27;;;;;;;;;;;;;;;;;;5071954;28;20021;-84
2022/07/30 04:01:54;;;;;;;7.15;2.25;;;;;;;;;;5065388;28;19916;-84
2022/07/30 04:04:55;;;;;;;4.65;2.33;;;;;;;;;;4985288;28;20030;-83
2022/07/30 04:07:22;;;;;;;5.72;2.17;;;;;;;;;;4968849;28;20046;-76
2022/07/30 04:09:48;;;;;;;3.38;2.00;;;;;;;;;;4967450;28;20164;-76
2022/07/30 04:12:28;;;;;;;5.15;2.05;;;;;;;;;;4975957;28;20123;-84
2022/07/30 04:14:56;;;;;;;3.78;2.60;;;;;;;;;;4985400;28;20042;-83
2022/07/30 04:17:25;;;;;;;3.03;1.83;;;;;;;;;;4969541;28;20476;-83
2022/07/30 04:19:53;;;;;;;6.72;2.13;;;;;;;;;;4980245;28;20034;-79
2022/07/30 04:22:31;;;;;;;8.57;3.75;;;;;;;;;;4969857;28;20038;-80
2022/07/30 04:24:58;;;;;;;4.70;2.13;;;;;;;;;;4979987;28;20117;-79
2022/07/30 04:27:25;;;;;;;4.35;2.20;;;;;;;;;;4974347;28;20031;-80
2022/07/30 04:29:55;;;;;;;4.78;2.28;;;;;;;;;;4984784;28;20034;-79
2022/07/30 04:32:21;;;;;;;6.47;2.25;;;;;;;;;;4982666;28;20038;-79
2022/07/30 04:34:48;;;;;;;4.35;2.33;;;;;;;;;;4986377;28;20041;-79
2022/07/30 04:37:18;;;;;;;5.07;2.97;;;;;;;;;;4968765;28;20034;-82
2022/07/30 04:39:48;;;;;;;5.28;2.97;;;;;;;;;;5054189;28;20453;-83
2022/07/30 04:42:15;;;;;;;3.92;2.45;;;;;;;;;;5086297;28;20120;-82
2022/07/30 04:44:43;;;;;;;3.95;2.17;;;;;;;;;;5069472;28;20028;-82
2022/07/30 04:47:27;;;;;;;7.78;2.35;;;;;;;;;;5085381;28;20016;-82
2022/07/30 04:50:11;;;;;;;4.43;2.20;;;;;;;;;;5070786;28;20089;-82
2022/07/30 04:52:37;;;;;;;8.05;3.00;;;;;;;;;;5071038;28;20028;-82
2022/07/30 04:55:06;;;;;;;7.55;2.95;;;;;;;;;;5062641;28;20189;-83
2022/07/30 04:57:33;;;;;;;5.70;2.92;;;;;;;;;;5068380;28;20028;-82
2022/07/30 04:59:59;;;;;;;5.00;2.75;;;;;;;;;;5073996;28;20024;-76
2022/07/30 05:02:28;;;;;;;3.58;2.30;;;;;;;;;;5067823;28;20024;-76
2022/07/30 05:04:56;;;;;;;8.70;3.13;;;;;;;;;;5050900;28;20484;-81
2022/07/30 05:07:23;;;;;;;7.30;2.90;;;;;;;;;;5072587;28;20442;-82
2022/07/30 05:09:49;;;;;;;4.90;2.70;;;;;;;;;;5063782;28;20162;-81
2022/07/30 05:12:16;;;;;;;6.45;3.38;;;;;;;;;;5069446;28;20524;-81
2022/07/30 05:14:42;;;;;;;4.35;2.97;;;;;;;;;;5064827;28;20109;-75
2022/07/30 05:17:09;;;;;;;9.90;3.10;;;;;;;;;;5049099;28;20033;-76
2022/07/30 05:19:35;;;;;;;7.00;4.05;;;;;;;;;;5047093;28;20025;-75
2022/07/30 05:22:01;;;;;;;5.05;3.58;;;;;;;;;;5043613;28;20107;-75
2022/07/30 05:24:30;;;;;;;7.22;3.95;;;;;;;;;;5044074;28;20166;-83
2022/07/30 05:26:57;;;;;;;7.05;4.30;;;;;;;;;;5044803;28;20032;-83
2022/07/30 05:29:25;;;;;;;12.85;5.85;;;;;;;;;;5047899;28;20036;-75
2022/07/30 05:31:59;;;;;;;9.05;5.90;;;;;;;;;;5042612;28;20056;-83
2022/07/30 05:34:25;;;;;;;10.57;6.40;;;;;;;;;;5049622;28;20096;-83
2022/07/30 05:36:53;;;;;;;14.65;6.55;;;;;;;;;;5043283;28;20043;-82
2022/07/30 05:39:20;;;;;;;17.42;7.95;;;;;;;;;;5046069;28;20071;-79
2022/07/30 05:41:53;;;;;;;13.38;8.80;;;;;;;;;;5047065;28;20570;-81
2022/07/30 05:44:46;;;;;;;15.70;8.98;;;;;;;;;;5046855;28;20029;-80
2022/07/30 05:47:12;;;;;;;14.02;9.32;;;;;;;;;;5049052;28;20021;-80
2022/07/30 05:49:39;;;;;;;21.27;9.52;;;;;;;;;;5049133;28;20028;-80
2022/07/30 05:52:12;;;;;;;14.70;9.35;;;;;;;;;;5040202;28;20045;-78
2022/07/30 05:54:38;;;;;;;18.75;8.98;;;;;;;;;;5045183;28;20029;-80
2022/07/30 05:57:24;;;;;;;13.75;8.95;;;;;;;;;;5044245;28;20500;-79
2022/07/30 05:59:50;;;;;;;17.83;9.18;;;;;;;;;;5038422;28;20021;-78
2022/07/30 06:02:27;;;;;;;14.30;8.77;;;;;;;;;;5032967;28;20022;-77
2022/07/30 06:05:22;;;;;;;14.35;8.93;;;;;;;;;;5001932;28;20129;-77
2022/07/30 06:07:49;;;;;;;16.20;9.50;;;;;;;;;;4998568;28;20026;-78
2022/07/30 06:10:17;;;;;;;17.83;9.35;;;;;;;;;;4995110;28;20422;-77
2022/07/30 06:12:43;;;;;;;16.05;8.77;;;;;;;;;;4986288;28;20048;-78
2022/07/30 06:15:10;;;;;;;17.92;9.05;;;;;;;;;;5008029;28;20111;-77
2022/07/30 06:17:42;;;;;;;15.55;8.43;;;;;;;;;;5024102;28;20029;-78
2022/07/30 06:20:37;;;;;;;15.05;8.40;;;;;;;;;;5024960;28;20623;-78
2022/07/30 06:23:15;;;;;;;12.90;6.75;;;;;;;;;;4996561;28;20037;-77
2022/07/30 06:26:00;;;;;;;12.82;7.50;;;;;;;;;;5037229;28;20041;-77
2022/07/30 06:28:26;;;;;;;10.45;7.65;;;;;;;;;;5028815;28;20040;-77
2022/07/30 06:30:53;;;;;;;12.40;6.47;;;;;;;;;;5012719;28;20065;-78
2022/07/30 06:33:22;;;;;;;11.82;5.97;;;;;;;;;;5029431;28;20515;-78
2022/07/30 06:35:49;;;;;;;8.95;5.93;;;;;;;;;;5022520;28;20033;-77
2022/07/30 06:38:18;;;;;;;9.43;5.68;;;;;;;;;;5033786;28;20115;-77
2022/07/30 06:40:56;;;;;;;8.55;4.93;;;;;;;;;;5033396;28;20033;-77
2022/07/30 06:43:41;;;;;;;9.02;4.75;;;;;;;;;;5069584;28;20028;-80
2022/07/30 06:46:28;;;;;;;6.30;4.45;;;;;;;;;;5064901;28;20033;-77
2022/07/30 06:48:54;;;;;;;7.28;4.20;;;;;;;;;;5067016;28;20075;-78
2022/07/30 06:51:20;;;;;;;6.95;4.50;;;;;;;;;;5069465;28;20116;-78
2022/07/30 06:53:47;;;;;;;6.25;3.88;;;;;;;;;;5062099;28;20024;-78
2022/07/30 06:56:14;;;;;;;5.80;3.63;;;;;;;;;;5067560;28;20060;-77
2022/07/30 06:58:47;;;;;;;8.82;3.47;;;;;;;;;;5070757;28;20020;-78
2022/07/30 07:01:31;;;;;;;5.05;3.05;;;;;;;;;;5067862;28;20066;-78
2022/07/30 07:03:58;;;;;;;4.88;2.80;;;;;;;;;;5065848;28;20033;-74
2022/07/30 07:06:25;;;;;;;5.82;2.50;;;;;;;;;;5069887;28;20451;-77
2022/07/30 07:08:51;;;;;;;4.88;2.53;;;;;;;;;;5068038;28;20404;-75
2022/07/30 07:11:25;;;;;;;4.53;2.25;;;;;;;;;;5062550;28;20063;-76
2022/07/30 07:13:54;;;;;;;2.97;2.28;;;;;;;;;;5081112;28;20138;-75
2022/07/30 07:16:30;;;;;;;3.75;2.60;;;;;;;;;;5074468;28;20024;-76
2022/07/30 07:18:59;;;;;;;5.13;2.60;;;;;;;;;;5064468;28;20123;-76
2022/07/30 07:21:25;;;;;;;3.58;2.63;;;;;;;;;;5066710;28;20031;-76
2022/07/30 07:23:53;;;;;;;3.28;1.90;;;;;;;;;;5071780;28;20024;-76
2022/07/30 07:26:40;;;;;;;6.10;2.45;;;;;;;;;;5094192;28;20040;-75
2022/07/30 07:29:08;;;;;;;5.10;2.10;;;;;;;;;;5074908;28;20055;-76
2022/07/30 07:31:34;;;;;;;6.15;1.58;;;;;;;;;;5069933;28;20035;-76
2022/07/30 07:34:00;;;;;;;5.57;1.50;;;;;;;;;;5067759;28;20403;-76
2022/07/30 07:36:27;;;;;;;7.63;1.60;;;;;;;;;;5090233;28;20020;-76
2022/07/30 07:38:53;;;;;;;2.47;1.20;;;;;;;;;;5072183;28;20524;-76
2022/07/30 07:41:19;;;;;;;4.47;1.27;;;;;;;;;;5069591;28;20393;-76
2022/07/30 07:43:46;;;;;;;4.85;1.10;;;;;;;;;;5070594;28;20058;-76
2022/07/30 07:46:19;;;;;;;;;;;;;;;;;;5073914;28;20032;-77
2022/07/30 07:48:45;;;;;;;1.17;1.08;;;;;;;;;;5073119;28;19908;-77
2022/07/30 07:51:26;;;;;;;3.58;1.20;;;;;;;;;;5066270;28;20419;-78
2022/07/30 07:53:53;;;;;;;3.45;1.63;;;;;;;;;;5070102;28;20849;-77
2022/07/30 07:56:19;;;;;;;3.22;1.30;;;;;;;;;;5089368;28;20499;-78
2022/07/30 07:58:47;;;;;;;5.30;1.20;;;;;;;;;;5072567;28;20110;-78
2022/07/30 08:01:13;;;;;;;3.00;1.02;;;;;;;;;;5067550;28;20113;-82
2022/07/30 08:04:00;;;;;;;4.15;1.20;;;;;;;;;;5084465;28;20173;-82
2022/07/30 08:06:46;;;;;;;5.30;1.23;;;;;;;;;;5088488;28;20024;-81
2022/07/30 08:09:35;;;;;;;2.17;1.20;;;;;;;;;;5027901;28;20049;-84
2022/07/30 08:12:12;;;;;;;4.93;1.10;;;;;;;;;;5009470;28;20208;-83
2022/07/30 08:15:02;;;;;;;7.15;0.98;;;;;;;;;;4930735;29;20039;-82
2022/07/30 08:17:47;;;;;;;1.73;1.13;;;;;;;;;;4930138;29;20087;-80
2022/07/30 08:20:21;;;;;;;6.88;1.77;;;;;;;;;;4929580;29;20425;-80
2022/07/30 08:22:47;;;;;;;3.95;1.83;;;;;;;;;;4906003;29;20082;-80
2022/07/30 08:25:15;;;;;;;3.85;1.65;;;;;;;;;;4931320;29;20583;-78
2022/07/30 08:27:43;;;;;;;3.40;2.03;;;;;;;;;;4904504;29;20041;-79
2022/07/30 08:30:10;;;;;;;4.55;1.70;;;;;;;;;;4919885;29;20096;-79
2022/07/30 08:32:37;;;;;;;5.72;2.00;;;;;;;;;;4911893;29;20040;-77
2022/07/30 08:35:05;;;;;;;3.97;2.17;;;;;;;;;;4915023;29;20593;-77
2022/07/30 08:37:32;;;;;;;5.32;2.15;;;;;;;;;;4906777;29;20032;-77
2022/07/30 08:39:59;;;;;;;4.50;2.03;;;;;;;;;;4912595;29;20099;-76
2022/07/30 08:42:26;;;;;;;5.65;2.25;;;;;;;;;;4919495;29;21382;-77
2022/07/30 08:44:53;;;;;;;3.60;1.90;;;;;;;;;;4920266;29;20152;-77
2022/07/30 08:47:23;;;;;;;4.45;2.10;;;;;;;;;;4958572;28;20042;-76
2022/07/30 08:50:08;;;;;;;9.25;3.05;;;;;;;;;;4978431;28;20528;-76
2022/07/30 08:52:39;;;;;;;4.80;2.17;;;;;;;;;;5031965;28;20070;-76
2022/07/30 08:55:07;;;;;;;2.75;1.77;;;;;;;;;;5066612;28;20528;-76
2022/07/30 08:57:34;;;;;;;3.08;1.58;;;;;;;;;;5067375;28;20036;-76
2022/07/30 09:00:02;;;;;;;7.90;2.05;;;;;;;;;;5076874;28;20027;-76
2022/07/30 09:02:30;;;;;;;4.32;1.92;;;;;;;;;;5069022;28;20028;-76
2022/07/30 09:05:03;;;;;;;3.67;1.58;;;;;;;;;;5074389;28;20019;-76
2022/07/30 09:07:31;;;;;;;5.28;1.50;;;;;;;;;;5070386;28;20073;-76
2022/07/30 09:09:59;;;;;;;3.72;1.58;;;;;;;;;;5071441;28;20077;-76
2022/07/30 09:12:34;;;;;;;4.97;1.55;;;;;;;;;;5084734;28;20424;-75
2022/07/30 09:15:11;;;;;;;2.40;1.70;;;;;;;;;;5082460;28;20044;-75
2022/07/30 09:17:46;;;;;;;3.03;1.73;;;;;;;;;;5068544;28;20080;-75
2022/07/30 09:20:13;;;;;;;2.45;1.75;;;;;;;;;;5073123;28;20085;-76
2022/07/30 09:22:44;;;;;;;2.67;1.45;;;;;;;;;;5066811;28;20024;-76
2022/07/30 09:25:33;;;;;;;3.35;1.85;;;;;;;;;;5085988;28;20035;-78
2022/07/30 09:28:26;;;;;;;3.47;1.90;;;;;;;;;;5091549;28;20043;-77
2022/07/30 09:31:32;;;;;;;;;;;;;;;;;;5030744;28;20459;-77
2022/07/30 09:34:24;;;;;;;3.75;1.80;;;;;;;;;;5020980;28;20020;-77
2022/07/30 09:36:50;;;;;;;6.28;1.90;;;;;;;;;;5024900;28;20480;-77
2022/07/30 09:39:52;;;;;;;6.05;1.98;;;;;;;;;;4946193;28;20464;-77
2022/07/30 09:42:42;;;;;;;2.63;1.98;;;;;;;;;;4928217;28;20538;-77
2022/07/30 09:45:14;;;;;;;8.20;1.98;;;;;;;;;;4931878;28;20046;-76
2022/07/30 09:47:47;;;;;;;7.65;1.88;;;;;;;;;;4925348;28;20043;-76
2022/07/30 09:50:14;;;;;;;5.72;1.40;;;;;;;;;;4931850;29;20154;-76
2022/07/30 09:52:42;;;;;;;5.10;1.60;;;;;;;;;;4945011;28;20549;-76
2022/07/30 09:55:08;;;;;;;5.43;2.08;;;;;;;;;;4929837;28;20651;-76
2022/07/30 09:57:34;;;;;;;4.47;1.80;;;;;;;;;;4933514;28;20027;-76
2022/07/30 10:00:23;;;;;;;2.72;1.92;;;;;;;;;;4952254;28;20042;-75
2022/07/30 10:03:13;;;;;;;2.03;1.77;;;;;;;;;;4978942;28;20173;-75
2022/07/30 10:06:12;;;;;;;5.10;1.80;;;;;;;;;;4960493;28;20026;-75
2022/07/30 10:08:51;;;;;;;7.38;2.03;;;;;;;;;;4988219;28;20034;-75
2022/07/30 10:11:21;;;;;;;2.72;2.33;;;;;;;;;;4991712;28;20034;-75
2022/07/30 10:13:50;;;;;;;4.10;2.22;;;;;;;;;;5034548;28;20510;-75
2022/07/30 10:16:16;;;;;;;1.77;1.60;;;;;;;;;;5075842;28;20067;-75
2022/07/30 10:18:43;;;;;;;2.97;1.73;;;;;;;;;;5071023;28;20062;-75
2022/07/30 10:21:41;;;;;;;3.72;1.95;;;;;;;;;;5091441;28;20032;-75
2022/07/30 10:24:31;;;;;;;3.63;1.90;;;;;;;;;;5092489;28;20029;-74
2022/07/30 10:27:26;;;;;;;2.95;2.03;;;;;;;;;;5044162;28;20524;-74
2022/07/30 10:30:03;;;;;;;4.70;3.22;;;;;;;;;;5006361;28;20036;-74
2022/07/30 10:32:31;;;;;;;3.13;1.88;;;;;;;;;;5027093;28;20042;-75
2022/07/30 10:34:57;;;;;;;5.03;1.90;;;;;;;;;;5029555;28;20417;-75
2022/07/30 10:37:25;;;;;;;1.73;1.30;;;;;;;;;;5037922;28;20124;-75
2022/07/30 10:39:56;;;;;;;1.48;1.30;;;;;;;;;;5024910;28;20116;-75
2022/07/30 10:42:34;;;;;;;2.03;1.10;;;;;;;;;;5023120;28;20504;-75
2022/07/30 10:45:00;;;;;;;2.17;1.65;;;;;;;;;;5029426;28;20116;-75
2022/07/30 10:47:27;;;;;;;1.85;1.10;;;;;;;;;;5025134;28;20452;-75
2022/07/30 10:50:06;;;;;;;1.70;1.20;;;;;;;;;;5027432;28;20028;-75
2022/07/30 10:52:44;;;;;;;3.60;1.40;;;;;;;;;;5024429;28;20516;-75
2022/07/30 10:55:14;;;;;;;1.00;0.90;;;;;;;;;;5013070;28;20091;-75
2022/07/30 10:58:15;;;;;;;2.13;1.20;;;;;;;;;;5035867;28;20042;-75
2022/07/30 11:00:53;;;;;;;2.33;1.02;;;;;;;;;;4973428;28;20067;-74
2022/07/30 11:03:19;;;;;;;0.60;0.60;;;;;;;;;;4980134;28;20420;-74
2022/07/30 11:05:47;;;;;;;0.38;0.38;;;;;;;;;;4992928;28;20060;-74
2022/07/30 11:08:33;;;;;;;0.43;0.30;;;;;;;;;;5028096;28;20064;-74
2022/07/30 11:11:00;;;;;;;2.78;0.70;;;;;;;;;;5030147;28;20468;-74
2022/07/30 11:13:56;;;;;;;1.05;0.43;;;;;;;;;;5022136;28;20040;-75
2022/07/30 11:16:34;;;;;;;0.85;0.40;;;;;;;;;;5006138;28;20054;-74
2022/07/30 11:19:04;;;;;;;2.38;0.68;;;;;;;;;;5023261;28;20050;-73
2022/07/30 11:21:31;;;;;;;0.82;0.20;;;;;;;;;;5023727;28;20517;-76
2022/07/30 11:23:57;;;;;;;3.08;0.40;;;;;;;;;;5020526;28;20119;-76
2022/07/30 11:26:40;;;;;;;0.50;0.40;;;;;;;;;;5022960;28;20419;-76
2022/07/30 11:29:06;;;;;;;0.55;0.30;;;;;;;;;;5019960;28;20091;-76
2022/07/30 11:31:34;;;;;;;0.22;0.22;;;;;;;;;;5018075;28;20026;-76
2022/07/30 11:34:19;;;;;;;1.17;0.22;;;;;;;;;;5037021;28;20044;-76
2022/07/30 11:37:09;;;;;;;0.20;0.20;;;;;;;;;;5081994;28;20074;-76
2022/07/30 11:39:53;;;;;;;0.10;0.10;;;;;;;;;;5076707;28;20531;-75
2022/07/30 11:42:26;;;;;;;0.30;0.30;;;;;;;;;;5078311;28;20652;-75
2022/07/30 11:44:52;;;;;;;0.30;0.20;;;;;;;;;;5082778;28;20396;-75
2022/07/30 11:47:19;;;;;;;0.30;0.20;;;;;;;;;;5083067;28;20028;-74
2022/07/30 11:49:46;;;;;;;1.63;0.40;;;;;;;;;;5085923;28;20378;-74
2022/07/30 11:52:12;;;;;;;0.57;0.28;;;;;;;;;;5082120;28;20047;-73
2022/07/30 11:54:52;;;;;;;0.28;0.20;;;;;;;;;;5085348;28;20064;-73
2022/07/30 11:57:18;;;;;;;0.45;0.30;;;;;;;;;;5082202;28;20035;-73
2022/07/30 11:59:56;;;;;;;1.58;0.60;;;;;;;;;;5081034;28;20028;-73
2022/07/30 12:02:26;;;;;;;0.32;0.32;;;;;;;;;;5079652;28;20020;-75
2022/07/30 12:04:53;;;;;;;1.27;0.60;;;;;;;;;;5078000;28;20708;-74
2022/07/30 12:07:23;;;;;;;2.08;0.60;;;;;;;;;;5062111;28;20036;-74
2022/07/30 12:09:49;;;;;;;0.50;0.20;;;;;;;;;;5086367;28;20546;-74
2022/07/30 12:12:26;;;;;;;0.30;0.30;;;;;;;;;;5082545;28;20028;-74
2022/07/30 12:14:52;;;;;;;3.65;0.40;;;;;;;;;;5090290;28;20043;-74
2022/07/30 12:17:18;;;;;;;2.40;0.40;;;;;;;;;;5092852;28;20028;-69
2022/07/30 12:19:44;;;;;;;0.70;0.17;;;;;;;;;;5089039;28;20089;-70
2022/07/30 12:22:11;;;;;;;0.35;0.20;;;;;;;;;;5087302;28;20418;-70
2022/07/30 12:24:37;;;;;;;0.50;0.30;;;;;;;;;;5089205;28;20024;-70
2022/07/30 12:27:07;;;;;;;0.73;0.30;;;;;;;;;;5088964;28;20034;-70
2022/07/30 12:29:34;;;;;;;1.60;0.32;;;;;;;;;;5089165;28;20024;-70
2022/07/30 12:32:00;;;;;;;0.30;0.22;;;;;;;;;;5079746;28;20020;-70
2022/07/30 12:34:26;;;;;;;0.40;0.40;;;;;;;;;;5069982;28;20040;-70
2022/07/30 12:36:53;;;;;;;0.32;0.30;;;;;;;;;;5086681;28;20021;-70
2022/07/30 12:39:21;;;;;;;0.45;0.32;;;;;;;;;;5088556;28;20023;-69
2022/07/30 12:41:48;;;;;;;0.70;0.38;;;;;;;;;;5087581;28;20035;-68
2022/07/30 12:44:33;;;;;;;1.13;0.50;;;;;;;;;;5088785;28;20447;-68
2022/07/30 12:46:59;;;;;;;1.20;0.30;;;;;;;;;;5079821;28;20054;-69
2022/07/30 12:49:29;;;;;;;0.52;0.40;;;;;;;;;;5085547;28;20477;-70
2022/07/30 12:51:55;;;;;;;0.63;0.45;;;;;;;;;;5068262;28;20032;-69
2022/07/30 12:54:21;;;;;;;0.40;0.40;;;;;;;;;;5082174;28;20036;-70
2022/07/30 12:57:01;;;;;;;1.65;0.57;;;;;;;;;;5080187;28;20043;-71
2022/07/30 12:59:28;;;;;;;0.98;0.40;;;;;;;;;;5078299;28;20027;-70
2022/07/30 13:01:56;;;;;;;0.57;0.50;;;;;;;;;;5076182;28;20028;-71
2022/07/30 13:04:22;;;;;;;1.75;0.70;;;;;;;;;;5077405;28;20543;-71
2022/07/30 13:07:07;;;;;;;2.65;0.75;;;;;;;;;;5078888;28;20056;-71
2022/07/30 13:09:33;;;;;;;1.30;0.82;;;;;;;;;;5083310;28;20428;-70
2022/07/30 13:12:00;;;;;;;1.65;0.60;;;;;;;;;;5061714;28;20028;-70
2022/07/30 13:14:26;;;;;;;0.82;0.45;;;;;;;;;;5080287;28;20150;-70
2022/07/30 13:16:54;;;;;;;1.67;0.70;;;;;;;;;;5084103;28;20024;-71
2022/07/30 13:19:20;;;;;;;0.70;0.70;;;;;;;;;;5057912;28;20117;-71
2022/07/30 13:21:47;;;;;;;0.70;0.70;;;;;;;;;;5070939;28;20028;-70
2022/07/30 13:24:13;;;;;;;1.52;0.90;;;;;;;;;;5072496;28;20028;-70
2022/07/30 13:26:39;;;;;;;3.22;0.77;;;;;;;;;;5075976;28;20032;-70
2022/07/30 13:29:06;;;;;;;0.70;0.70;;;;;;;;;;5076869;28;20036;-70
2022/07/30 13:31:32;;;;;;;2.45;0.80;;;;;;;;;;5079663;28;20031;-71
2022/07/30 13:33:58;;;;;;;2.63;0.85;;;;;;;;;;5078987;28;20084;-72
2022/07/30 13:36:24;;;;;;;4.78;0.93;;;;;;;;;;5062605;28;20036;-72
2022/07/30 13:38:50;;;;;;;2.17;1.00;;;;;;;;;;5080329;28;20028;-71
2022/07/30 13:41:17;;;;;;;3.38;1.17;;;;;;;;;;5073924;28;20601;-72
2022/07/30 13:43:43;;;;;;;1.08;0.73;;;;;;;;;;5077394;28;20085;-72
2022/07/30 13:46:09;;;;;;;2.88;0.90;;;;;;;;;;5060814;28;20037;-72
2022/07/30 13:48:35;;;;;;;1.23;0.90;;;;;;;;;;5078917;28;20381;-72
2022/07/30 13:51:02;;;;;;;1.33;1.10;;;;;;;;;;5074521;28;20071;-72
2022/07/30 13:53:29;;;;;;;1.45;1.00;;;;;;;;;;5078397;28;20034;-71
2022/07/30 13:55:55;;;;;;;2.45;1.00;;;;;;;;;;5082154;28;20059;-70
2022/07/30 13:58:21;;;;;;;2.60;0.75;;;;;;;;;;5080279;28;20391;-70
2022/07/30 14:00:47;;;;;;;1.83;0.68;;;;;;;;;;5061537;28;21695;-68
2022/07/30 14:03:14;;;;;;;2.40;0.90;;;;;;;;;;5075924;28;20119;-68
2022/07/30 14:05:41;;;;;;;2.22;0.88;;;;;;;;;;5084867;28;20399;-68
2022/07/30 14:08:08;;;;;;;0.75;0.75;;;;;;;;;;5078615;28;20123;-68
2022/07/30 14:10:35;;;;;;;2.15;0.80;;;;;;;;;;5078793;28;20052;-70
2022/07/30 14:13:02;;;;;;;2.65;0.98;;;;;;;;;;5076546;28;20032;-69
2022/07/30 14:15:32;;;;;;;3.95;1.58;;;;;;;;;;5040633;28;20083;-69
2022/07/30 14:17:58;;;;;;;6.15;1.30;;;;;;;;;;5078046;28;20078;-68
2022/07/30 14:20:25;;;;;;;1.55;1.02;;;;;;;;;;5083828;28;20024;-68
2022/07/30 14:22:51;;;;;;;1.95;1.25;;;;;;;;;;5079552;28;20048;-68
2022/07/30 14:25:18;;;;;;;2.03;1.20;;;;;;;;;;5065592;28;20028;-68
2022/07/30 14:27:44;;;;;;;1.70;1.30;;;;;;;;;;5075700;28;20036;-68
2022/07/30 14:30:10;;;;;;;1.20;1.10;;;;;;;;;;5079536;28;20024;-68
2022/07/30 14:32:37;;;;;;;3.17;1.35;;;;;;;;;;5076190;28;20116;-68
2022/07/30 14:35:04;;;;;;;5.93;1.08;;;;;;;;;;5081012;28;20434;-69
2022/07/30 14:37:30;;;;;;;2.13;1.40;;;;;;;;;;5080435;28;20020;-69
2022/07/30 14:39:56;;;;;;;2.03;1.40;;;;;;;;;;5084381;28;20115;-68
2022/07/30 14:42:24;;;;;;;1.88;1.13;;;;;;;;;;5086743;28;20032;-68
2022/07/30 14:44:50;;;;;;;3.15;1.35;;;;;;;;;;5061059;28;20617;-69
2022/07/30 14:47:16;;;;;;;4.75;1.27;;;;;;;;;;5081367;28;20024;-69
2022/07/30 14:49:42;;;;;;;2.10;1.25;;;;;;;;;;5083471;28;20069;-69
2022/07/30 14:52:08;;;;;;;1.52;1.10;;;;;;;;;;5080454;28;20028;-69
2022/07/30 14:54:35;;;;;;;1.60;1.02;;;;;;;;;;5069821;28;20028;-69
2022/07/30 14:57:01;;;;;;;2.47;1.05;;;;;;;;;;5087875;28;20120;-69
2022/07/30 14:59:27;;;;;;;1.13;1.00;;;;;;;;;;5089651;28;20032;-69
2022/07/30 15:01:54;;;;;;;1.40;1.05;;;;;;;;;;5070118;28;20365;-69
2022/07/30 15:04:20;;;;;;;2.92;1.08;;;;;;;;;;5084190;28;20027;-72